sensor_id;sensor_type;location;lat;lon;timestamp;pressure;altitude;pressure_sealevel;temperature;humidity
26839;BME280;40088;51.214;6.786;2023-04-19T00:09:28;102303.56;;;18.25;52.35
26839;BME280;40088;51.214;6.786;2023-04-19T00:19:28;102300.09;;;18.23;52.80
26839;BME280;40088;51.214;6.786;2023-04-19T00:29:28;102290.94;;;18.22;52.75
26839;BME280;40088;51.214;6.786;2023-04-19T00:39:29;102296.28;;;18.24;52.74
26839;BME280;40088;51.214;6.786;2023-04-19T00:49:29;102288.91;;;18.25;52.68
26839;BME280;40088;51.214;6.786;2023-04-19T00:59:29;102289.78;;;18.25;52.72
26839;BME280;40088;51.214;6.786;2023-04-19T01:09:30;102284.41;;;18.23;52.72
26839;BME280;40088;51.214;6.786;2023-04-19T01:19:30;102275.25;;;18.23;52.73
26839;BME280;40088;51.214;6.786;2023-04-19T01:29:30;102273.22;;;18.25;52.74
26839;BME280;40088;51.214;6.786;2023-04-19T01:39:31;102265.94;;;18.24;52.73
26839;BME280;40088;51.214;6.786;2023-04-19T01:49:31;102260.44;;;18.24;52.73
26839;BME280;40088;51.214;6.786;2023-04-19T01:59:31;102257.84;;;18.22;52.99
26839;BME280;40088;51.214;6.786;2023-04-19T02:09:35;102255.81;;;18.25;52.74
26839;BME280;40088;51.214;6.786;2023-04-19T02:19:36;102244.03;;;18.22;52.78
26839;BME280;40088;51.214;6.786;2023-04-19T02:29:37;102247.66;;;18.23;52.75
26839;BME280;40088;51.214;6.786;2023-04-19T02:39:37;102249.25;;;18.26;53.10
26839;BME280;40088;51.214;6.786;2023-04-19T02:49:37;102243.00;;;18.23;53.11
26839;BME280;40088;51.214;6.786;2023-04-19T02:59:40;102251.47;;;18.22;53.05
26839;BME280;40088;51.214;6.786;2023-04-19T03:09:40;102246.63;;;18.24;53.02
26839;BME280;40088;51.214;6.786;2023-04-19T03:19:41;102243.00;;;18.23;53.15
26839;BME280;40088;51.214;6.786;2023-04-19T03:29:41;102232.84;;;18.24;53.19
26839;BME280;40088;51.214;6.786;2023-04-19T03:39:41;102233.72;;;18.25;53.13
26839;BME280;40088;51.214;6.786;2023-04-19T03:49:42;102218.88;;;18.26;53.19
26839;BME280;40088;51.214;6.786;2023-04-19T03:59:42;102221.66;;;18.26;53.19
26839;BME280;40088;51.214;6.786;2023-04-19T04:09:42;102215.28;;;18.25;53.27
26839;BME280;40088;51.214;6.786;2023-04-19T04:19:44;102210.63;;;18.26;53.28
26839;BME280;40088;51.214;6.786;2023-04-19T04:29:44;102207.00;;;18.25;53.21
26839;BME280;40088;51.214;6.786;2023-04-19T04:39:45;102211.47;;;18.26;53.08
26839;BME280;40088;51.214;6.786;2023-04-19T04:49:45;102217.00;;;18.26;53.19
26839;BME280;40088;51.214;6.786;2023-04-19T04:59:45;102215.09;;;18.27;53.18
26839;BME280;40088;51.214;6.786;2023-04-19T05:09:47;102213.19;;;18.27;53.05
26839;BME280;40088;51.214;6.786;2023-04-19T05:19:47;102206.63;;;18.28;53.29
26839;BME280;40088;51.214;6.786;2023-04-19T05:29:47;102214.91;;;18.28;52.87
26839;BME280;40088;51.214;6.786;2023-04-19T05:39:50;102218.53;;;18.29;52.96
26839;BME280;40088;51.214;6.786;2023-04-19T05:49:50;102224.91;;;18.29;53.09
26839;BME280;40088;51.214;6.786;2023-04-19T05:59:51;102219.41;;;18.29;52.80
26839;BME280;40088;51.214;6.786;2023-04-19T06:09:51;102216.50;;;18.31;52.72
26839;BME280;40088;51.214;6.786;2023-04-19T06:19:51;102212.88;;;18.30;52.71
26839;BME280;40088;51.214;6.786;2023-04-19T06:29:52;102214.72;;;18.30;52.76
26839;BME280;40088;51.214;6.786;2023-04-19T06:39:52;102210.09;;;18.30;52.56
26839;BME280;40088;51.214;6.786;2023-04-19T06:49:52;102214.72;;;18.30;52.60
26839;BME280;40088;51.214;6.786;2023-04-19T06:59:56;102216.50;;;18.31;52.65
26839;BME280;40088;51.214;6.786;2023-04-19T07:09:57;102212.69;;;18.32;52.27
26839;BME280;40088;51.214;6.786;2023-04-19T07:19:57;102208.22;;;18.31;52.41
26839;BME280;40088;51.214;6.786;2023-04-19T07:29:57;102210.78;;;18.32;52.31
26839;BME280;40088;51.214;6.786;2023-04-19T07:39:58;102210.97;;;18.31;52.16
26839;BME280;40088;51.214;6.786;2023-04-19T07:49:58;102216.31;;;18.32;51.97
26839;BME280;40088;51.214;6.786;2023-04-19T07:59:58;102192.34;;;18.33;52.07
26839;BME280;40088;51.214;6.786;2023-04-19T08:09:59;102209.75;;;18.33;52.14
26839;BME280;40088;51.214;6.786;2023-04-19T08:19:59;102202.50;;;18.32;52.17
26839;BME280;40088;51.214;6.786;2023-04-19T08:30:00;102200.63;;;18.33;52.01
26839;BME280;40088;51.214;6.786;2023-04-19T08:40:00;102209.94;;;18.32;51.91
26839;BME280;40088;51.214;6.786;2023-04-19T08:50:03;102207.00;;;18.33;51.76
26839;BME280;40088;51.214;6.786;2023-04-19T09:00:04;102201.47;;;18.33;51.81
26839;BME280;40088;51.214;6.786;2023-04-19T09:10:10;102197.66;;;18.34;51.61
26839;BME280;40088;51.214;6.786;2023-04-19T09:20:10;102196.81;;;18.34;51.61
26839;BME280;40088;51.214;6.786;2023-04-19T09:30:11;102179.22;;;18.35;51.67
26839;BME280;40088;51.214;6.786;2023-04-19T09:40:22;102166.47;;;18.34;51.54
26839;BME280;40088;51.214;6.786;2023-04-19T09:50:23;102157.31;;;18.33;51.83
26839;BME280;40088;51.214;6.786;2023-04-19T10:00:23;102169.94;;;18.36;51.50
26839;BME280;40088;51.214;6.786;2023-04-19T10:10:25;102153.38;;;18.36;51.35
26839;BME280;40088;51.214;6.786;2023-04-19T10:20:40;102137.81;;;18.35;51.27
26839;BME280;40088;51.214;6.786;2023-04-19T10:30:53;102149.56;;;18.37;51.04
26839;BME280;40088;51.214;6.786;2023-04-19T10:40:55;102136.81;;;18.36;51.05
26839;BME280;40088;51.214;6.786;2023-04-19T10:51:00;102142.31;;;18.36;50.99
26839;BME280;40088;51.214;6.786;2023-04-19T11:01:33;102130.25;;;18.37;50.95
26839;BME280;40088;51.214;6.786;2023-04-19T11:11:37;102123.88;;;18.36;50.72
26839;BME280;40088;51.214;6.786;2023-04-19T11:21:40;102119.22;;;18.37;50.67
26839;BME280;40088;51.214;6.786;2023-04-19T11:31:43;102114.38;;;18.39;50.67
26839;BME280;40088;51.214;6.786;2023-04-19T11:41:45;102095.22;;;18.37;50.61
26839;BME280;40088;51.214;6.786;2023-04-19T11:51:46;102077.63;;;18.38;50.45
26839;BME280;40088;51.214;6.786;2023-04-19T12:01:46;102070.06;;;18.40;50.34
26839;BME280;40088;51.214;6.786;2023-04-19T12:11:47;102066.41;;;18.40;50.35
26839;BME280;40088;51.214;6.786;2023-04-19T12:21:49;102052.47;;;18.41;50.27
26839;BME280;40088;51.214;6.786;2023-04-19T12:31:49;102042.47;;;18.40;50.30
26839;BME280;40088;51.214;6.786;2023-04-19T12:41:50;102035.91;;;18.41;50.23
26839;BME280;40088;51.214;6.786;2023-04-19T12:51:50;102022.25;;;18.40;50.21
26839;BME280;40088;51.214;6.786;2023-04-19T13:01:50;102019.16;;;18.43;50.30
26839;BME280;40088;51.214;6.786;2023-04-19T13:11:51;101997.25;;;18.41;50.46
26839;BME280;40088;51.214;6.786;2023-04-19T13:21:51;101992.22;;;18.45;50.29
26839;BME280;40088;51.214;6.786;2023-04-19T13:31:51;101972.91;;;18.45;50.43
26839;BME280;40088;51.214;6.786;2023-04-19T13:41:52;101974.47;;;18.47;50.05
26839;BME280;40088;51.214;6.786;2023-04-19T13:51:52;101968.75;;;18.49;50.03
26839;BME280;40088;51.214;6.786;2023-04-19T14:01:52;101960.66;;;18.47;50.13
26839;BME280;40088;51.214;6.786;2023-04-19T14:11:54;101943.44;;;18.45;50.38
26839;BME280;40088;51.214;6.786;2023-04-19T14:21:55;101926.38;;;18.42;50.50
26839;BME280;40088;51.214;6.786;2023-04-19T14:31:55;101923.09;;;18.38;50.65
26839;BME280;40088;51.214;6.786;2023-04-19T14:41:58;101907.06;;;18.34;50.75
26839;BME280;40088;51.214;6.786;2023-04-19T14:51:58;101872.41;;;18.31;50.62
26839;BME280;40088;51.214;6.786;2023-04-19T15:01:58;101872.56;;;18.30;50.79
26839;BME280;40088;51.214;6.786;2023-04-19T15:11:58;101868.28;;;18.27;50.66
26839;BME280;40088;51.214;6.786;2023-04-19T15:21:59;101856.59;;;18.25;50.67
26839;BME280;40088;51.214;6.786;2023-04-19T15:31:59;101866.75;;;18.25;50.92
26839;BME280;40088;51.214;6.786;2023-04-19T15:41:59;101863.13;;;18.24;50.88
26839;BME280;40088;51.214;6.786;2023-04-19T15:52:01;101853.31;;;18.21;50.92
26839;BME280;40088;51.214;6.786;2023-04-19T16:02:01;101861.06;;;18.18;51.03
26839;BME280;40088;51.214;6.786;2023-04-19T16:12:01;101854.19;;;18.14;51.05
26839;BME280;40088;51.214;6.786;2023-04-19T16:22:02;101852.66;;;18.11;50.98
26839;BME280;40088;51.214;6.786;2023-04-19T16:32:04;101834.38;;;18.10;50.99
26839;BME280;40088;51.214;6.786;2023-04-19T16:42:05;101844.56;;;18.10;50.87
26839;BME280;40088;51.214;6.786;2023-04-19T16:52:05;101838.19;;;18.09;50.66
26839;BME280;40088;51.214;6.786;2023-04-19T17:02:05;101834.72;;;18.07;50.79
26839;BME280;40088;51.214;6.786;2023-04-19T17:12:07;101827.50;;;18.06;50.72
26839;BME280;40088;51.214;6.786;2023-04-19T17:22:08;101827.69;;;18.05;50.61
26839;BME280;40088;51.214;6.786;2023-04-19T17:32:08;101822.31;;;18.03;50.59
26839;BME280;40088;51.214;6.786;2023-04-19T17:42:08;101824.22;;;18.03;50.60
26839;BME280;40088;51.214;6.786;2023-04-19T17:52:08;101824.41;;;18.01;50.50
26839;BME280;40088;51.214;6.786;2023-04-19T18:02:09;101835.63;;;18.00;50.55
26839;BME280;40088;51.214;6.786;2023-04-19T18:12:09;101832.16;;;18.06;50.21
26839;BME280;40088;51.214;6.786;2023-04-19T18:22:09;101839.91;;;18.10;50.01
26839;BME280;40088;51.214;6.786;2023-04-19T18:32:10;101848.84;;;18.12;50.06
26839;BME280;40088;51.214;6.786;2023-04-19T18:42:10;101849.38;;;18.16;49.92
26839;BME280;40088;51.214;6.786;2023-04-19T18:52:11;101864.69;;;18.18;50.11
26839;BME280;40088;51.214;6.786;2023-04-19T19:02:12;101875.72;;;18.18;49.84
26839;BME280;40088;51.214;6.786;2023-04-19T19:12:13;101895.72;;;18.20;49.71
26839;BME280;40088;51.214;6.786;2023-04-19T19:22:13;101909.34;;;18.22;49.95
26839;BME280;40088;51.214;6.786;2023-04-19T19:32:13;101910.19;;;18.22;49.99
26839;BME280;40088;51.214;6.786;2023-04-19T19:42:15;101906.41;;;18.23;49.83
26839;BME280;40088;51.214;6.786;2023-04-19T19:52:15;101909.00;;;18.25;49.82
26839;BME280;40088;51.214;6.786;2023-04-19T20:02:16;101920.03;;;18.25;49.86
26839;BME280;40088;51.214;6.786;2023-04-19T20:12:16;101919.84;;;18.27;49.81
26839;BME280;40088;51.214;6.786;2023-04-19T20:22:17;101916.06;;;18.28;49.82
26839;BME280;40088;51.214;6.786;2023-04-19T20:32:17;101922.63;;;18.27;50.01
26839;BME280;40088;51.214;6.786;2023-04-19T20:42:18;101926.75;;;18.31;49.73
26839;BME280;40088;51.214;6.786;2023-04-19T20:52:18;101916.72;;;18.30;49.77
26839;BME280;40088;51.214;6.786;2023-04-19T21:02:18;101916.72;;;18.30;49.78
26839;BME280;40088;51.214;6.786;2023-04-19T21:12:19;101916.72;;;18.30;49.67
26839;BME280;40088;51.214;6.786;2023-04-19T21:22:19;101923.13;;;18.30;49.68
26839;BME280;40088;51.214;6.786;2023-04-19T21:32:19;101916.72;;;18.30;49.67
26839;BME280;40088;51.214;6.786;2023-04-19T21:42:21;101909.16;;;18.32;49.67
26839;BME280;40088;51.214;6.786;2023-04-19T21:52:21;101912.75;;;18.32;49.46
26839;BME280;40088;51.214;6.786;2023-04-19T22:02:21;101908.09;;;18.33;49.53
26839;BME280;40088;51.214;6.786;2023-04-19T22:12:22;101894.31;;;18.33;49.34
26839;BME280;40088;51.214;6.786;2023-04-19T22:22:24;101888.78;;;18.33;49.30
26839;BME280;40088;51.214;6.786;2023-04-19T22:32:24;101878.59;;;18.33;49.28
26839;BME280;40088;51.214;6.786;2023-04-19T22:42:24;101858.25;;;18.34;49.02
26839;BME280;40088;51.214;6.786;2023-04-19T22:52:25;101860.16;;;18.34;49.14
26839;BME280;40088;51.214;6.786;2023-04-19T23:02:26;101838.78;;;18.36;49.07
26839;BME280;40088;51.214;6.786;2023-04-19T23:12:27;101820.00;;;18.31;49.31
26839;BME280;40088;51.214;6.786;2023-04-19T23:22:29;101822.56;;;18.33;49.17
26839;BME280;40088;51.214;6.786;2023-04-19T23:32:30;101798.78;;;18.32;48.96
26839;BME280;40088;51.214;6.786;2023-04-19T23:42:30;101787.75;;;18.32;49.12
26839;BME280;40088;51.214;6.786;2023-04-19T23:52:31;101761.84;;;18.33;49.10
